sensor_id;sensor_type;location;lat;lon;timestamp;temperature;humidity
17795;DHT22;9021;50.882;4.326;2022-07-23T00:00:52;19.00;99.90
17795;DHT22;9021;50.882;4.326;2022-07-23T00:03:17;19.00;99.90
17795;DHT22;9021;50.882;4.326;2022-07-23T00:05:43;19.10;99.90
17795;DHT22;9021;50.882;4.326;2022-07-23T00:08:09;19.10;99.90
17795;DHT22;9021;50.882;4.326;2022-07-23T00:10:35;19.00;99.90
17795;DHT22;9021;50.882;4.326;2022-07-23T00:13:00;19.10;99.90
17795;DHT22;9021;50.882;4.326;2022-07-23T00:15:26;19.10;99.90
17795;DHT22;9021;50.882;4.326;2022-07-23T00:17:52;19.10;99.90
17795;DHT22;9021;50.882;4.326;2022-07-23T00:20:18;19.00;99.90
17795;DHT22;9021;50.882;4.326;2022-07-23T00:22:51;18.90;99.90
17795;DHT22;9021;50.882;4.326;2022-07-23T00:25:17;19.00;99.90
17795;DHT22;9021;50.882;4.326;2022-07-23T00:27:43;18.90;99.90
17795;DHT22;9021;50.882;4.326;2022-07-23T00:30:09;18.90;99.90
17795;DHT22;9021;50.882;4.326;2022-07-23T00:32:54;18.90;99.90
17795;DHT22;9021;50.882;4.326;2022-07-23T00:35:21;18.90;99.90
17795;DHT22;9021;50.882;4.326;2022-07-23T00:37:47;18.90;99.90
17795;DHT22;9021;50.882;4.326;2022-07-23T00:40:13;18.80;99.90
17795;DHT22;9021;50.882;4.326;2022-07-23T00:42:39;18.90;99.90
17795;DHT22;9021;50.882;4.326;2022-07-23T00:45:05;18.80;99.90
17795;DHT22;9021;50.882;4.326;2022-07-23T00:47:31;18.70;99.90
17795;DHT22;9021;50.882;4.326;2022-07-23T00:49:57;18.70;99.90
17795;DHT22;9021;50.882;4.326;2022-07-23T00:52:23;18.70;99.90
17795;DHT22;9021;50.882;4.326;2022-07-23T00:54:49;18.70;99.90
17795;DHT22;9021;50.882;4.326;2022-07-23T00:57:15;18.70;99.90
17795;DHT22;9021;50.882;4.326;2022-07-23T00:59:41;18.80;99.90
17795;DHT22;9021;50.882;4.326;2022-07-23T01:02:07;18.70;99.90
17795;DHT22;9021;50.882;4.326;2022-07-23T01:04:33;18.70;99.90
17795;DHT22;9021;50.882;4.326;2022-07-23T01:06:58;18.70;99.90
17795;DHT22;9021;50.882;4.326;2022-07-23T01:09:26;18.70;99.90
17795;DHT22;9021;50.882;4.326;2022-07-23T01:11:56;18.70;99.90
17795;DHT22;9021;50.882;4.326;2022-07-23T01:14:21;18.70;99.90
17795;DHT22;9021;50.882;4.326;2022-07-23T01:16:48;18.70;99.90
17795;DHT22;9021;50.882;4.326;2022-07-23T01:19:16;18.60;99.90
17795;DHT22;9021;50.882;4.326;2022-07-23T01:21:43;18.70;99.90
17795;DHT22;9021;50.882;4.326;2022-07-23T01:24:10;18.60;99.90
17795;DHT22;9021;50.882;4.326;2022-07-23T01:26:37;18.60;99.90
17795;DHT22;9021;50.882;4.326;2022-07-23T01:29:03;18.60;99.90
17795;DHT22;9021;50.882;4.326;2022-07-23T01:31:29;18.50;99.90
17795;DHT22;9021;50.882;4.326;2022-07-23T01:33:55;18.50;99.90
17795;DHT22;9021;50.882;4.326;2022-07-23T01:36:21;18.50;99.90
17795;DHT22;9021;50.882;4.326;2022-07-23T01:38:47;18.50;99.90
17795;DHT22;9021;50.882;4.326;2022-07-23T01:41:13;18.50;99.90
17795;DHT22;9021;50.882;4.326;2022-07-23T01:43:39;18.50;99.90
17795;DHT22;9021;50.882;4.326;2022-07-23T01:46:05;18.40;99.90
17795;DHT22;9021;50.882;4.326;2022-07-23T01:48:30;18.50;99.90
17795;DHT22;9021;50.882;4.326;2022-07-23T01:50:56;18.40;99.90
17795;DHT22;9021;50.882;4.326;2022-07-23T01:53:22;18.30;99.90
17795;DHT22;9021;50.882;4.326;2022-07-23T01:55:48;18.30;99.90
17795;DHT22;9021;50.882;4.326;2022-07-23T01:58:13;18.30;99.90
17795;DHT22;9021;50.882;4.326;2022-07-23T02:00:39;18.30;99.90
17795;DHT22;9021;50.882;4.326;2022-07-23T02:03:05;18.20;99.90
17795;DHT22;9021;50.882;4.326;2022-07-23T02:05:30;18.30;99.90
17795;DHT22;9021;50.882;4.326;2022-07-23T02:07:57;18.30;99.90
17795;DHT22;9021;50.882;4.326;2022-07-23T02:10:23;18.30;99.90
17795;DHT22;9021;50.882;4.326;2022-07-23T02:12:48;18.30;99.90
17795;DHT22;9021;50.882;4.326;2022-07-23T02:15:14;18.30;99.90
17795;DHT22;9021;50.882;4.326;2022-07-23T02:17:40;18.30;99.90
17795;DHT22;9021;50.882;4.326;2022-07-23T02:20:07;18.30;99.90
17795;DHT22;9021;50.882;4.326;2022-07-23T02:22:33;18.20;99.90
17795;DHT22;9021;50.882;4.326;2022-07-23T02:24:59;18.20;99.90
17795;DHT22;9021;50.882;4.326;2022-07-23T02:27:24;18.20;99.90
17795;DHT22;9021;50.882;4.326;2022-07-23T02:29:50;18.30;99.90
17795;DHT22;9021;50.882;4.326;2022-07-23T02:32:16;18.30;99.90
17795;DHT22;9021;50.882;4.326;2022-07-23T02:34:41;18.20;99.90
17795;DHT22;9021;50.882;4.326;2022-07-23T02:37:07;18.10;99.90
17795;DHT22;9021;50.882;4.326;2022-07-23T02:39:34;18.00;99.90
17795;DHT22;9021;50.882;4.326;2022-07-23T02:42:00;18.00;99.90
17795;DHT22;9021;50.882;4.326;2022-07-23T02:44:26;18.00;99.90
17795;DHT22;9021;50.882;4.326;2022-07-23T02:46:51;18.00;99.90
17795;DHT22;9021;50.882;4.326;2022-07-23T02:49:17;18.10;99.90
17795;DHT22;9021;50.882;4.326;2022-07-23T02:51:42;18.00;99.90
17795;DHT22;9021;50.882;4.326;2022-07-23T02:54:08;18.00;99.90
17795;DHT22;9021;50.882;4.326;2022-07-23T02:56:34;18.00;99.90
17795;DHT22;9021;50.882;4.326;2022-07-23T02:58:59;18.00;99.90
17795;DHT22;9021;50.882;4.326;2022-07-23T03:01:25;18.00;99.90
17795;DHT22;9021;50.882;4.326;2022-07-23T03:03:51;18.00;99.90
17795;DHT22;9021;50.882;4.326;2022-07-23T03:06:17;17.90;99.90
17795;DHT22;9021;50.882;4.326;2022-07-23T03:08:42;17.90;99.90
17795;DHT22;9021;50.882;4.326;2022-07-23T03:11:10;18.00;99.90
17795;DHT22;9021;50.882;4.326;2022-07-23T03:13:40;18.00;99.90
17795;DHT22;9021;50.882;4.326;2022-07-23T03:16:06;18.00;99.90
17795;DHT22;9021;50.882;4.326;2022-07-23T03:18:32;17.90;99.90
17795;DHT22;9021;50.882;4.326;2022-07-23T03:20:58;17.90;99.90
17795;DHT22;9021;50.882;4.326;2022-07-23T03:23:24;17.80;99.90
17795;DHT22;9021;50.882;4.326;2022-07-23T03:25:50;17.90;99.90
17795;DHT22;9021;50.882;4.326;2022-07-23T03:28:18;17.80;99.90
17795;DHT22;9021;50.882;4.326;2022-07-23T03:30:48;17.90;99.90
17795;DHT22;9021;50.882;4.326;2022-07-23T03:33:25;17.90;99.90
17795;DHT22;9021;50.882;4.326;2022-07-23T03:35:50;17.80;99.90
17795;DHT22;9021;50.882;4.326;2022-07-23T03:38:16;17.80;99.90
17795;DHT22;9021;50.882;4.326;2022-07-23T03:40:41;17.70;99.90
17795;DHT22;9021;50.882;4.326;2022-07-23T03:43:07;17.70;99.90
17795;DHT22;9021;50.882;4.326;2022-07-23T03:45:33;17.60;99.90
17795;DHT22;9021;50.882;4.326;2022-07-23T03:47:59;17.60;99.90
17795;DHT22;9021;50.882;4.326;2022-07-23T03:50:25;17.60;99.90
17795;DHT22;9021;50.882;4.326;2022-07-23T03:52:51;17.60;99.90
17795;DHT22;9021;50.882;4.326;2022-07-23T03:55:16;17.70;99.90
17795;DHT22;9021;50.882;4.326;2022-07-23T03:57:43;17.70;99.90
17795;DHT22;9021;50.882;4.326;2022-07-23T04:00:09;17.70;99.90
17795;DHT22;9021;50.882;4.326;2022-07-23T04:02:36;17.60;99.90
17795;DHT22;9021;50.882;4.326;2022-07-23T04:05:02;17.60;99.90
17795;DHT22;9021;50.882;4.326;2022-07-23T04:07:28;17.50;99.90
17795;DHT22;9021;50.882;4.326;2022-07-23T04:09:54;17.60;99.90
17795;DHT22;9021;50.882;4.326;2022-07-23T04:12:20;17.60;99.90
17795;DHT22;9021;50.882;4.326;2022-07-23T04:14:45;17.60;99.90
17795;DHT22;9021;50.882;4.326;2022-07-23T04:17:12;17.70;99.90
17795;DHT22;9021;50.882;4.326;2022-07-23T04:19:38;17.70;99.90
17795;DHT22;9021;50.882;4.326;2022-07-23T04:22:07;17.60;99.90
17795;DHT22;9021;50.882;4.326;2022-07-23T04:24:33;17.70;99.90
17795;DHT22;9021;50.882;4.326;2022-07-23T04:26:59;17.60;99.90
17795;DHT22;9021;50.882;4.326;2022-07-23T04:29:25;17.60;99.90
17795;DHT22;9021;50.882;4.326;2022-07-23T04:31:50;17.60;99.90
17795;DHT22;9021;50.882;4.326;2022-07-23T04:34:16;17.60;99.90
17795;DHT22;9021;50.882;4.326;2022-07-23T04:36:42;17.60;99.90
17795;DHT22;9021;50.882;4.326;2022-07-23T04:39:08;17.60;99.90
17795;DHT22;9021;50.882;4.326;2022-07-23T04:41:33;17.70;99.90
17795;DHT22;9021;50.882;4.326;2022-07-23T04:44:00;17.80;99.90
17795;DHT22;9021;50.882;4.326;2022-07-23T04:46:26;17.80;99.90
17795;DHT22;9021;50.882;4.326;2022-07-23T04:48:51;17.70;99.90
17795;DHT22;9021;50.882;4.326;2022-07-23T04:51:17;17.70;99.90
17795;DHT22;9021;50.882;4.326;2022-07-23T04:53:43;17.70;99.90
17795;DHT22;9021;50.882;4.326;2022-07-23T04:56:08;17.80;99.90
17795;DHT22;9021;50.882;4.326;2022-07-23T04:58:34;17.80;99.90
17795;DHT22;9021;50.882;4.326;2022-07-23T05:01:00;17.80;99.90
17795;DHT22;9021;50.882;4.326;2022-07-23T05:03:26;17.80;99.90
17795;DHT22;9021;50.882;4.326;2022-07-23T05:05:52;17.90;99.90
17795;DHT22;9021;50.882;4.326;2022-07-23T05:08:17;18.00;99.90
17795;DHT22;9021;50.882;4.326;2022-07-23T05:10:43;18.10;99.90
17795;DHT22;9021;50.882;4.326;2022-07-23T05:13:09;18.30;99.90
17795;DHT22;9021;50.882;4.326;2022-07-23T05:15:34;18.50;99.90
17795;DHT22;9021;50.882;4.326;2022-07-23T05:18:00;18.60;99.90
17795;DHT22;9021;50.882;4.326;2022-07-23T05:20:26;18.80;99.90
17795;DHT22;9021;50.882;4.326;2022-07-23T05:22:51;18.80;99.90
17795;DHT22;9021;50.882;4.326;2022-07-23T05:25:17;19.00;99.90
17795;DHT22;9021;50.882;4.326;2022-07-23T05:27:43;19.00;99.90
17795;DHT22;9021;50.882;4.326;2022-07-23T05:30:09;19.00;99.90
17795;DHT22;9021;50.882;4.326;2022-07-23T05:32:35;19.00;99.90
17795;DHT22;9021;50.882;4.326;2022-07-23T05:35:03;19.00;99.90
17795;DHT22;9021;50.882;4.326;2022-07-23T05:37:28;19.00;99.90
17795;DHT22;9021;50.882;4.326;2022-07-23T05:39:54;19.10;99.90
17795;DHT22;9021;50.882;4.326;2022-07-23T05:42:19;19.20;99.90
17795;DHT22;9021;50.882;4.326;2022-07-23T05:44:45;19.30;99.90
17795;DHT22;9021;50.882;4.326;2022-07-23T05:47:11;19.40;99.90
17795;DHT22;9021;50.882;4.326;2022-07-23T05:49:37;19.30;99.90
17795;DHT22;9021;50.882;4.326;2022-07-23T05:52:05;19.30;99.90
17795;DHT22;9021;50.882;4.326;2022-07-23T05:54:33;19.30;99.90
17795;DHT22;9021;50.882;4.326;2022-07-23T05:56:59;19.40;99.90
17795;DHT22;9021;50.882;4.326;2022-07-23T05:59:24;19.30;99.90
17795;DHT22;9021;50.882;4.326;2022-07-23T06:01:50;19.20;99.90
17795;DHT22;9021;50.882;4.326;2022-07-23T06:04:15;19.10;99.90
17795;DHT22;9021;50.882;4.326;2022-07-23T06:06:41;19.10;99.90
17795;DHT22;9021;50.882;4.326;2022-07-23T06:09:07;19.00;99.90
17795;DHT22;9021;50.882;4.326;2022-07-23T06:11:32;19.10;99.90
17795;DHT22;9021;50.882;4.326;2022-07-23T06:13:58;19.20;99.90
17795;DHT22;9021;50.882;4.326;2022-07-23T06:16:24;19.10;99.90
17795;DHT22;9021;50.882;4.326;2022-07-23T06:18:49;19.10;99.90
17795;DHT22;9021;50.882;4.326;2022-07-23T06:21:15;19.10;99.90
17795;DHT22;9021;50.882;4.326;2022-07-23T06:23:41;19.00;99.90
17795;DHT22;9021;50.882;4.326;2022-07-23T06:26:06;19.10;99.90
17795;DHT22;9021;50.882;4.326;2022-07-23T06:28:32;19.30;99.90
17795;DHT22;9021;50.882;4.326;2022-07-23T06:30:58;19.50;99.90
17795;DHT22;9021;50.882;4.326;2022-07-23T06:33:23;19.60;99.90
17795;DHT22;9021;50.882;4.326;2022-07-23T06:35:49;19.70;99.90
17795;DHT22;9021;50.882;4.326;2022-07-23T06:38:14;19.80;99.90
17795;DHT22;9021;50.882;4.326;2022-07-23T06:40:40;20.20;99.90
17795;DHT22;9021;50.882;4.326;2022-07-23T06:43:06;20.60;99.90
17795;DHT22;9021;50.882;4.326;2022-07-23T06:45:31;21.30;99.90
17795;DHT22;9021;50.882;4.326;2022-07-23T06:47:57;22.10;99.90
17795;DHT22;9021;50.882;4.326;2022-07-23T06:50:23;23.00;99.90
17795;DHT22;9021;50.882;4.326;2022-07-23T06:52:48;23.80;99.90
17795;DHT22;9021;50.882;4.326;2022-07-23T06:55:14;24.60;99.90
17795;DHT22;9021;50.882;4.326;2022-07-23T06:57:40;25.70;98.60
17795;DHT22;9021;50.882;4.326;2022-07-23T07:00:05;26.70;96.50
17795;DHT22;9021;50.882;4.326;2022-07-23T07:02:31;26.80;95.30
17795;DHT22;9021;50.882;4.326;2022-07-23T07:04:57;27.80;93.80
17795;DHT22;9021;50.882;4.326;2022-07-23T07:07:22;27.80;92.50
17795;DHT22;9021;50.882;4.326;2022-07-23T07:09:49;28.10;91.70
17795;DHT22;9021;50.882;4.326;2022-07-23T07:12:14;28.30;91.00
17795;DHT22;9021;50.882;4.326;2022-07-23T07:14:40;28.00;90.70
17795;DHT22;9021;50.882;4.326;2022-07-23T07:17:06;28.50;90.30
17795;DHT22;9021;50.882;4.326;2022-07-23T07:19:31;28.20;90.00
17795;DHT22;9021;50.882;4.326;2022-07-23T07:21:57;28.80;89.20
17795;DHT22;9021;50.882;4.326;2022-07-23T07:24:23;29.60;86.50
17795;DHT22;9021;50.882;4.326;2022-07-23T07:26:48;29.70;85.50
17795;DHT22;9021;50.882;4.326;2022-07-23T07:29:14;29.70;83.70
17795;DHT22;9021;50.882;4.326;2022-07-23T07:31:40;30.90;81.60
17795;DHT22;9021;50.882;4.326;2022-07-23T07:34:05;32.10;78.80
17795;DHT22;9021;50.882;4.326;2022-07-23T07:36:31;32.90;76.20
17795;DHT22;9021;50.882;4.326;2022-07-23T07:38:58;34.00;73.10
17795;DHT22;9021;50.882;4.326;2022-07-23T07:41:23;34.40;71.80
17795;DHT22;9021;50.882;4.326;2022-07-23T07:43:51;35.40;69.00
17795;DHT22;9021;50.882;4.326;2022-07-23T07:46:17;35.60;67.60
17795;DHT22;9021;50.882;4.326;2022-07-23T07:48:43;35.10;67.50
17795;DHT22;9021;50.882;4.326;2022-07-23T07:51:09;35.50;67.00
17795;DHT22;9021;50.882;4.326;2022-07-23T07:53:34;36.10;65.70
17795;DHT22;9021;50.882;4.326;2022-07-23T07:56:00;36.80;64.60
17795;DHT22;9021;50.882;4.326;2022-07-23T07:58:26;37.80;61.80
17795;DHT22;9021;50.882;4.326;2022-07-23T08:00:51;37.70;62.20
17795;DHT22;9021;50.882;4.326;2022-07-23T08:03:17;37.90;60.90
17795;DHT22;9021;50.882;4.326;2022-07-23T08:05:43;37.50;61.40
17795;DHT22;9021;50.882;4.326;2022-07-23T08:08:08;36.70;61.40
17795;DHT22;9021;50.882;4.326;2022-07-23T08:10:40;37.70;60.40
17795;DHT22;9021;50.882;4.326;2022-07-23T08:13:06;36.30;61.30
17795;DHT22;9021;50.882;4.326;2022-07-23T08:15:32;36.90;60.80
17795;DHT22;9021;50.882;4.326;2022-07-23T08:17:58;38.10;59.80
17795;DHT22;9021;50.882;4.326;2022-07-23T08:20:24;36.90;60.00
17795;DHT22;9021;50.882;4.326;2022-07-23T08:23:03;36.10;61.20
17795;DHT22;9021;50.882;4.326;2022-07-23T08:25:31;37.60;60.60
17795;DHT22;9021;50.882;4.326;2022-07-23T08:27:58;38.90;58.70
17795;DHT22;9021;50.882;4.326;2022-07-23T08:30:24;40.10;57.50
17795;DHT22;9021;50.882;4.326;2022-07-23T08:33:00;40.70;56.40
17795;DHT22;9021;50.882;4.326;2022-07-23T08:35:31;41.50;55.50
17795;DHT22;9021;50.882;4.326;2022-07-23T08:37:58;42.10;55.00
17795;DHT22;9021;50.882;4.326;2022-07-23T08:40:26;42.10;53.70
17795;DHT22;9021;50.882;4.326;2022-07-23T08:42:53;42.40;52.80
17795;DHT22;9021;50.882;4.326;2022-07-23T08:45:20;42.70;51.90
17795;DHT22;9021;50.882;4.326;2022-07-23T08:47:51;43.10;51.10
17795;DHT22;9021;50.882;4.326;2022-07-23T08:50:18;43.30;50.40
17795;DHT22;9021;50.882;4.326;2022-07-23T08:52:43;42.70;50.20
17795;DHT22;9021;50.882;4.326;2022-07-23T08:55:09;42.10;51.00
17795;DHT22;9021;50.882;4.326;2022-07-23T08:57:35;40.80;51.60
17795;DHT22;9021;50.882;4.326;2022-07-23T09:00:02;39.10;53.00
17795;DHT22;9021;50.882;4.326;2022-07-23T09:02:28;39.50;52.30
17795;DHT22;9021;50.882;4.326;2022-07-23T09:04:54;39.00;52.60
17795;DHT22;9021;50.882;4.326;2022-07-23T09:07:20;39.90;52.30
17795;DHT22;9021;50.882;4.326;2022-07-23T09:09:45;38.80;52.10
17795;DHT22;9021;50.882;4.326;2022-07-23T09:12:11;39.10;52.00
17795;DHT22;9021;50.882;4.326;2022-07-23T09:14:41;40.00;51.10
17795;DHT22;9021;50.882;4.326;2022-07-23T09:17:15;40.20;51.40
17795;DHT22;9021;50.882;4.326;2022-07-23T09:19:42;41.10;50.00
17795;DHT22;9021;50.882;4.326;2022-07-23T09:22:26;40.70;50.70
17795;DHT22;9021;50.882;4.326;2022-07-23T09:25:06;39.80;50.70
17795;DHT22;9021;50.882;4.326;2022-07-23T09:27:55;39.00;51.30
17795;DHT22;9021;50.882;4.326;2022-07-23T09:30:23;39.90;50.60
17795;DHT22;9021;50.882;4.326;2022-07-23T09:33:13;40.50;50.30
17795;DHT22;9021;50.882;4.326;2022-07-23T09:35:49;40.60;49.80
17795;DHT22;9021;50.882;4.326;2022-07-23T09:38:16;40.90;49.60
17795;DHT22;9021;50.882;4.326;2022-07-23T09:40:42;40.60;49.60
17795;DHT22;9021;50.882;4.326;2022-07-23T09:43:08;40.70;49.00
17795;DHT22;9021;50.882;4.326;2022-07-23T09:45:34;40.00;49.40
17795;DHT22;9021;50.882;4.326;2022-07-23T09:48:13;39.40;49.70
17795;DHT22;9021;50.882;4.326;2022-07-23T09:50:41;38.40;50.50
17795;DHT22;9021;50.882;4.326;2022-07-23T09:53:07;38.10;51.10
17795;DHT22;9021;50.882;4.326;2022-07-23T09:55:35;38.00;51.30
17795;DHT22;9021;50.882;4.326;2022-07-23T09:58:03;37.40;51.50
17795;DHT22;9021;50.882;4.326;2022-07-23T10:00:30;35.40;53.50
17795;DHT22;9021;50.882;4.326;2022-07-23T10:02:57;35.20;53.80
17795;DHT22;9021;50.882;4.326;2022-07-23T10:05:24;34.80;54.20
17795;DHT22;9021;50.882;4.326;2022-07-23T10:07:51;34.70;54.50
17795;DHT22;9021;50.882;4.326;2022-07-23T10:10:17;34.90;56.20
17795;DHT22;9021;50.882;4.326;2022-07-23T10:12:46;35.10;55.40
17795;DHT22;9021;50.882;4.326;2022-07-23T10:15:21;34.50;54.00
17795;DHT22;9021;50.882;4.326;2022-07-23T10:17:48;34.00;54.00
17795;DHT22;9021;50.882;4.326;2022-07-23T10:20:14;33.10;54.00
17795;DHT22;9021;50.882;4.326;2022-07-23T10:22:47;33.00;54.20
17795;DHT22;9021;50.882;4.326;2022-07-23T10:31:31;36.40;52.50
17795;DHT22;9021;50.882;4.326;2022-07-23T10:34:21;37.10;50.60
17795;DHT22;9021;50.882;4.326;2022-07-23T10:37:43;37.20;51.00
17795;DHT22;9021;50.882;4.326;2022-07-23T10:40:20;38.40;49.60
17795;DHT22;9021;50.882;4.326;2022-07-23T10:42:48;38.90;49.20
17795;DHT22;9021;50.882;4.326;2022-07-23T10:45:34;38.50;49.70
17795;DHT22;9021;50.882;4.326;2022-07-23T10:51:06;40.20;48.70
17795;DHT22;9021;50.882;4.326;2022-07-23T10:59:04;42.10;46.80
17795;DHT22;9021;50.882;4.326;2022-07-23T11:01:38;42.00;46.80
17795;DHT22;9021;50.882;4.326;2022-07-23T11:04:04;41.90;47.20
17795;DHT22;9021;50.882;4.326;2022-07-23T11:09:39;41.80;47.00
17795;DHT22;9021;50.882;4.326;2022-07-23T11:20:22;42.90;46.20
17795;DHT22;9021;50.882;4.326;2022-07-23T11:22:51;43.40;45.60
17795;DHT22;9021;50.882;4.326;2022-07-23T11:27:54;43.00;45.30
17795;DHT22;9021;50.882;4.326;2022-07-23T11:33:17;42.70;46.00
17795;DHT22;9021;50.882;4.326;2022-07-23T11:35:49;43.00;46.50
17795;DHT22;9021;50.882;4.326;2022-07-23T11:38:22;42.00;46.10
17795;DHT22;9021;50.882;4.326;2022-07-23T11:41:14;41.20;46.60
17795;DHT22;9021;50.882;4.326;2022-07-23T11:43:47;41.10;47.20
17795;DHT22;9021;50.882;4.326;2022-07-23T11:46:13;41.80;46.50
17795;DHT22;9021;50.882;4.326;2022-07-23T11:48:39;41.40;46.60
17795;DHT22;9021;50.882;4.326;2022-07-23T11:51:05;41.60;46.60
17795;DHT22;9021;50.882;4.326;2022-07-23T11:53:32;41.70;47.60
17795;DHT22;9021;50.882;4.326;2022-07-23T11:56:07;41.40;46.60
17795;DHT22;9021;50.882;4.326;2022-07-23T11:58:33;41.60;48.30
17795;DHT22;9021;50.882;4.326;2022-07-23T12:00:59;41.50;46.60
17795;DHT22;9021;50.882;4.326;2022-07-23T12:03:25;41.70;46.60
17795;DHT22;9021;50.882;4.326;2022-07-23T12:05:56;41.80;46.70
17795;DHT22;9021;50.882;4.326;2022-07-23T12:08:23;41.50;46.60
17795;DHT22;9021;50.882;4.326;2022-07-23T12:10:49;41.40;47.10
17795;DHT22;9021;50.882;4.326;2022-07-23T12:13:17;41.30;46.30
17795;DHT22;9021;50.882;4.326;2022-07-23T12:15:52;41.10;46.30
17795;DHT22;9021;50.882;4.326;2022-07-23T12:18:20;40.80;46.70
17795;DHT22;9021;50.882;4.326;2022-07-23T12:20:49;40.10;47.70
17795;DHT22;9021;50.882;4.326;2022-07-23T12:23:17;39.50;48.30
17795;DHT22;9021;50.882;4.326;2022-07-23T12:25:45;38.80;48.60
17795;DHT22;9021;50.882;4.326;2022-07-23T12:28:13;39.10;49.70
17795;DHT22;9021;50.882;4.326;2022-07-23T12:30:40;39.30;49.10
17795;DHT22;9021;50.882;4.326;2022-07-23T12:33:08;39.30;48.30
17795;DHT22;9021;50.882;4.326;2022-07-23T12:35:39;39.00;48.40
17795;DHT22;9021;50.882;4.326;2022-07-23T12:38:17;38.70;48.70
17795;DHT22;9021;50.882;4.326;2022-07-23T12:40:47;38.40;48.70
17795;DHT22;9021;50.882;4.326;2022-07-23T12:43:32;38.20;49.30
17795;DHT22;9021;50.882;4.326;2022-07-23T12:46:15;37.60;49.90
17795;DHT22;9021;50.882;4.326;2022-07-23T12:53:47;36.10;51.50
17795;DHT22;9021;50.882;4.326;2022-07-23T12:56:18;36.10;51.80
17795;DHT22;9021;50.882;4.326;2022-07-23T12:58:48;36.10;50.80
17795;DHT22;9021;50.882;4.326;2022-07-23T13:01:34;35.80;51.40
17795;DHT22;9021;50.882;4.326;2022-07-23T13:06:35;35.30;51.40
17795;DHT22;9021;50.882;4.326;2022-07-23T13:09:04;35.10;52.20
17795;DHT22;9021;50.882;4.326;2022-07-23T13:11:30;35.10;53.90
17795;DHT22;9021;50.882;4.326;2022-07-23T13:13:55;34.80;52.70
17795;DHT22;9021;50.882;4.326;2022-07-23T13:16:21;34.60;53.80
17795;DHT22;9021;50.882;4.326;2022-07-23T13:18:47;34.50;54.10
17795;DHT22;9021;50.882;4.326;2022-07-23T13:21:12;34.20;54.10
17795;DHT22;9021;50.882;4.326;2022-07-23T13:23:38;34.20;53.90
17795;DHT22;9021;50.882;4.326;2022-07-23T13:26:04;34.10;53.50
17795;DHT22;9021;50.882;4.326;2022-07-23T13:28:29;32.60;55.60
17795;DHT22;9021;50.882;4.326;2022-07-23T13:30:55;31.60;57.20
17795;DHT22;9021;50.882;4.326;2022-07-23T13:33:24;31.30;57.20
17795;DHT22;9021;50.882;4.326;2022-07-23T13:35:50;31.70;58.50
17795;DHT22;9021;50.882;4.326;2022-07-23T13:38:16;32.00;56.20
17795;DHT22;9021;50.882;4.326;2022-07-23T13:40:45;32.40;57.90
17795;DHT22;9021;50.882;4.326;2022-07-23T13:43:13;32.40;56.50
17795;DHT22;9021;50.882;4.326;2022-07-23T13:45:40;32.20;56.70
17795;DHT22;9021;50.882;4.326;2022-07-23T13:48:08;32.00;57.10
17795;DHT22;9021;50.882;4.326;2022-07-23T13:50:35;31.80;57.80
17795;DHT22;9021;50.882;4.326;2022-07-23T13:53:06;31.90;57.90
17795;DHT22;9021;50.882;4.326;2022-07-23T13:55:33;31.90;57.20
17795;DHT22;9021;50.882;4.326;2022-07-23T13:57:59;32.10;57.70
17795;DHT22;9021;50.882;4.326;2022-07-23T14:00:26;32.40;57.90
17795;DHT22;9021;50.882;4.326;2022-07-23T14:02:52;32.70;57.50
17795;DHT22;9021;50.882;4.326;2022-07-23T14:05:18;32.90;56.90
17795;DHT22;9021;50.882;4.326;2022-07-23T14:07:43;33.00;56.60
17795;DHT22;9021;50.882;4.326;2022-07-23T14:10:10;33.00;57.80
17795;DHT22;9021;50.882;4.326;2022-07-23T14:12:36;32.90;56.50
17795;DHT22;9021;50.882;4.326;2022-07-23T14:15:03;33.10;56.10
17795;DHT22;9021;50.882;4.326;2022-07-23T14:17:30;33.10;56.00
17795;DHT22;9021;50.882;4.326;2022-07-23T14:19:55;32.90;56.00
17795;DHT22;9021;50.882;4.326;2022-07-23T14:22:21;32.60;56.20
17795;DHT22;9021;50.882;4.326;2022-07-23T14:24:47;32.30;57.10
17795;DHT22;9021;50.882;4.326;2022-07-23T14:27:13;32.00;57.10
17795;DHT22;9021;50.882;4.326;2022-07-23T14:29:38;31.90;56.90
17795;DHT22;9021;50.882;4.326;2022-07-23T14:32:04;32.00;57.50
17795;DHT22;9021;50.882;4.326;2022-07-23T14:34:30;32.10;56.40
17795;DHT22;9021;50.882;4.326;2022-07-23T14:36:57;32.30;57.00
17795;DHT22;9021;50.882;4.326;2022-07-23T14:39:22;32.50;57.70
17795;DHT22;9021;50.882;4.326;2022-07-23T14:41:48;32.30;56.80
17795;DHT22;9021;50.882;4.326;2022-07-23T14:44:14;32.20;57.30
17795;DHT22;9021;50.882;4.326;2022-07-23T14:46:39;31.40;58.40
17795;DHT22;9021;50.882;4.326;2022-07-23T14:49:05;31.40;58.20
17795;DHT22;9021;50.882;4.326;2022-07-23T14:51:31;31.40;58.20
17795;DHT22;9021;50.882;4.326;2022-07-23T14:53:57;31.40;58.90
17795;DHT22;9021;50.882;4.326;2022-07-23T14:56:22;31.50;58.00
17795;DHT22;9021;50.882;4.326;2022-07-23T14:58:48;31.50;58.30
17795;DHT22;9021;50.882;4.326;2022-07-23T15:01:14;31.60;57.80
17795;DHT22;9021;50.882;4.326;2022-07-23T15:03:39;31.60;59.40
17795;DHT22;9021;50.882;4.326;2022-07-23T15:06:05;31.70;58.30
17795;DHT22;9021;50.882;4.326;2022-07-23T15:08:31;31.60;58.60
17795;DHT22;9021;50.882;4.326;2022-07-23T15:10:57;31.60;58.10
17795;DHT22;9021;50.882;4.326;2022-07-23T15:13:22;31.70;58.80
17795;DHT22;9021;50.882;4.326;2022-07-23T15:15:48;31.80;59.40
17795;DHT22;9021;50.882;4.326;2022-07-23T15:18:14;31.80;58.20
17795;DHT22;9021;50.882;4.326;2022-07-23T15:20:40;31.80;58.50
17795;DHT22;9021;50.882;4.326;2022-07-23T15:23:06;31.90;60.50
17795;DHT22;9021;50.882;4.326;2022-07-23T15:25:31;32.10;59.50
17795;DHT22;9021;50.882;4.326;2022-07-23T15:27:58;32.00;57.30
17795;DHT22;9021;50.882;4.326;2022-07-23T15:30:27;32.00;57.60
17795;DHT22;9021;50.882;4.326;2022-07-23T15:32:52;31.90;56.70
17795;DHT22;9021;50.882;4.326;2022-07-23T15:35:19;31.90;57.30
17795;DHT22;9021;50.882;4.326;2022-07-23T15:37:45;31.80;57.70
17795;DHT22;9021;50.882;4.326;2022-07-23T15:40:10;31.90;58.70
17795;DHT22;9021;50.882;4.326;2022-07-23T15:42:36;32.10;58.80
17795;DHT22;9021;50.882;4.326;2022-07-23T15:45:03;32.10;57.30
17795;DHT22;9021;50.882;4.326;2022-07-23T15:47:29;31.90;57.40
17795;DHT22;9021;50.882;4.326;2022-07-23T15:49:54;31.60;57.40
17795;DHT22;9021;50.882;4.326;2022-07-23T15:52:20;31.50;57.90
17795;DHT22;9021;50.882;4.326;2022-07-23T15:54:46;31.50;58.10
17795;DHT22;9021;50.882;4.326;2022-07-23T15:57:12;31.50;57.90
17795;DHT22;9021;50.882;4.326;2022-07-23T15:59:37;31.30;58.20
17795;DHT22;9021;50.882;4.326;2022-07-23T16:02:04;31.00;58.90
17795;DHT22;9021;50.882;4.326;2022-07-23T16:04:30;31.10;59.00
17795;DHT22;9021;50.882;4.326;2022-07-23T16:06:56;31.10;58.60
17795;DHT22;9021;50.882;4.326;2022-07-23T16:09:22;31.20;59.10
17795;DHT22;9021;50.882;4.326;2022-07-23T16:11:48;31.30;59.00
17795;DHT22;9021;50.882;4.326;2022-07-23T16:14:13;31.30;58.40
17795;DHT22;9021;50.882;4.326;2022-07-23T16:16:41;31.30;58.40
17795;DHT22;9021;50.882;4.326;2022-07-23T16:19:06;31.30;58.40
17795;DHT22;9021;50.882;4.326;2022-07-23T16:21:32;31.10;58.90
17795;DHT22;9021;50.882;4.326;2022-07-23T16:23:58;31.00;58.80